Time;durP1;ratioP1;P1;durP2;ratioP2;P2;SDS_P1;SDS_P2;PMS_P1;PMS_P2;Temp;Humidity;BMP_temperature;BMP_pressure;BME280_temperature;BME280_humidity;BME280_pressure;Samples;Min_cycle;Max_cycle;Signal;HPM_P1;HPM_P2
2023/07/17 00:00:06;;;;;;;5.43;2.63;;;;;15.20;94448.00;;;;7396533;19;20566;-80
2023/07/17 00:02:41;;;;;;;5.75;2.97;;;;;15.30;94443.00;;;;7394128;19;20208;-80
2023/07/17 00:05:10;;;;;;;7.38;3.38;;;;;15.30;94447.00;;;;7392530;19;20142;-80
2023/07/17 00:07:39;;;;;;;4.50;2.53;;;;;15.50;94444.00;;;;7394114;19;20224;-80
2023/07/17 00:10:14;;;;;;;6.70;2.30;;;;;15.40;94442.00;;;;7398170;19;20512;-80
2023/07/17 00:12:50;;;;;;;5.95;2.60;;;;;15.40;94451.00;;;;7395139;19;20204;-80
2023/07/17 00:15:25;;;;;;;4.05;2.55;;;;;15.30;94443.00;;;;7396121;19;20494;-79
2023/07/17 00:17:53;;;;;;;4.47;2.65;;;;;15.30;94451.00;;;;7396375;19;20129;-79
2023/07/17 00:20:20;;;;;;;5.53;2.65;;;;;15.40;94440.00;;;;7396876;19;20596;-79
2023/07/17 00:22:55;;;;;;;4.55;2.80;;;;;15.40;94444.00;;;;7395819;19;20642;-79
2023/07/17 00:25:23;;;;;;;5.68;2.70;;;;;15.50;94436.00;;;;7396092;19;20133;-79
2023/07/17 00:27:58;;;;;;;5.70;2.60;;;;;15.40;94432.00;;;;7396398;19;20195;-79
2023/07/17 00:30:31;;;;;;;6.22;2.58;;;;;15.40;94432.00;;;;7394998;19;20141;-79
2023/07/17 00:32:59;;;;;;;3.55;2.65;;;;;15.40;94439.00;;;;7395245;19;20631;-80
2023/07/17 00:35:27;;;;;;;7.13;2.92;;;;;15.40;94432.00;;;;7395786;19;20155;-79
2023/07/17 00:38:02;;;;;;;4.63;2.60;;;;;15.40;94428.00;;;;7395381;19;20140;-79
2023/07/17 00:40:31;;;;;;;5.38;2.33;;;;;15.50;94434.00;;;;7395091;19;20148;-80
2023/07/17 00:43:10;;;;;;;3.90;2.33;;;;;15.60;94428.00;;;;7395715;19;20153;-79
2023/07/17 00:45:45;;;;;;;3.45;2.55;;;;;15.50;94424.00;;;;7401342;19;20149;-79
2023/07/17 00:48:19;;;;;;;6.63;2.78;;;;;15.40;94426.00;;;;7402795;19;20631;-78
2023/07/17 00:50:51;;;;;;;6.93;2.90;;;;;15.60;94414.00;;;;7399217;19;20183;-79
2023/07/17 00:53:25;;;;;;;4.60;2.50;;;;;15.50;94427.00;;;;7396103;19;20154;-78
2023/07/17 00:55:59;;;;;;;5.45;2.60;;;;;15.50;94436.00;;;;7402744;19;20141;-78
2023/07/17 00:58:27;;;;;;;6.47;2.58;;;;;15.50;94432.00;;;;7403064;19;20137;-80
2023/07/17 01:01:04;;;;;;;4.20;2.45;;;;;15.30;94438.00;;;;7401663;19;20132;-80
2023/07/17 01:03:32;;;;;;;2.92;2.30;;;;;15.10;94442.00;;;;7402303;19;20140;-80
2023/07/17 01:06:13;;;;;;;4.70;2.25;;;;;15.00;94439.00;;;;7401373;19;20612;-81
2023/07/17 01:08:47;;;;;;;4.70;2.53;;;;;15.10;94443.00;;;;7402638;19;20573;-80
2023/07/17 01:11:21;;;;;;;6.03;2.47;;;;;15.30;94439.00;;;;7401444;19;20148;-80
2023/07/17 01:13:56;;;;;;;5.22;2.67;;;;;15.40;94440.00;;;;7396771;19;20204;-82
2023/07/17 01:16:30;;;;;;;5.60;2.45;;;;;15.40;94442.00;;;;7402433;19;20198;-81
2023/07/17 01:18:58;;;;;;;6.03;2.35;;;;;15.40;94450.00;;;;7401913;19;20141;-80
2023/07/17 01:21:29;;;;;;;3.25;2.55;;;;;15.30;94454.00;;;;7401042;19;20196;-81
2023/07/17 01:24:06;;;;;;;4.95;2.53;;;;;15.30;94453.00;;;;7401989;19;20137;-79
2023/07/17 01:26:34;;;;;;;4.65;2.60;;;;;15.30;94452.00;;;;7396863;19;20128;-81
2023/07/17 01:29:08;;;;;;;9.23;3.13;;;;;15.40;94441.00;;;;7400873;19;20154;-81
2023/07/17 01:31:38;;;;;;;8.43;3.13;;;;;15.40;94447.00;;;;7399241;19;20133;-81
2023/07/17 01:34:11;;;;;;;6.38;2.70;;;;;15.30;94449.00;;;;7401539;19;20170;-79
2023/07/17 01:36:39;;;;;;;7.97;3.13;;;;;15.20;94441.00;;;;7401959;19;20163;-81
2023/07/17 01:39:14;;;;;;;6.85;2.85;;;;;15.40;94436.00;;;;7400059;19;20223;-80
2023/07/17 01:41:49;;;;;;;6.90;2.75;;;;;15.30;94433.00;;;;7400688;19;20148;-80
2023/07/17 01:44:31;;;;;;;7.03;2.80;;;;;15.30;94437.00;;;;7400650;19;20622;-79
2023/07/17 01:46:59;;;;;;;4.97;2.95;;;;;15.20;94432.00;;;;7399455;19;20519;-81
2023/07/17 01:49:35;;;;;;;3.85;2.47;;;;;15.10;94433.00;;;;7400657;19;20140;-82
2023/07/17 01:52:10;;;;;;;6.55;2.85;;;;;14.90;94444.00;;;;7402004;19;20145;-80
2023/07/17 01:54:38;;;;;;;5.72;3.00;;;;;15.00;94445.00;;;;7399468;19;20133;-80
2023/07/17 01:57:07;;;;;;;5.45;2.70;;;;;14.90;94450.00;;;;7401400;19;20151;-80
2023/07/17 01:59:41;;;;;;;4.18;3.03;;;;;14.90;94455.00;;;;7400623;19;20153;-80
2023/07/17 02:02:09;;;;;;;5.10;2.35;;;;;14.80;94453.00;;;;7399427;19;20666;-80
2023/07/17 02:04:44;;;;;;;4.47;2.85;;;;;14.90;94461.00;;;;7399554;19;20145;-80
2023/07/17 02:07:18;;;;;;;5.95;2.90;;;;;15.00;94455.00;;;;7396110;19;20164;-81
2023/07/17 02:09:53;;;;;;;8.68;3.10;;;;;14.90;94462.00;;;;7399661;19;20159;-79
2023/07/17 02:12:27;;;;;;;6.22;2.58;;;;;14.80;94450.00;;;;7401809;19;20139;-79
2023/07/17 02:15:01;;;;;;;5.82;2.75;;;;;14.90;94445.00;;;;7398674;19;20133;-79
2023/07/17 02:17:29;;;;;;;8.15;2.78;;;;;14.90;94460.00;;;;7398782;19;20148;-79
2023/07/17 02:20:13;;;;;;;5.45;2.75;;;;;14.80;94451.00;;;;7399688;19;20626;-80
2023/07/17 02:22:47;;;;;;;7.53;2.92;;;;;14.80;94445.00;;;;7400114;19;20166;-80
2023/07/17 02:25:17;;;;;;;8.63;3.20;;;;;15.00;94443.00;;;;7398347;19;20620;-80
2023/07/17 02:27:44;;;;;;;6.03;3.08;;;;;14.90;94457.00;;;;7397007;19;20532;-79
2023/07/17 02:30:18;;;;;;;5.53;3.08;;;;;14.80;94454.00;;;;7398093;19;20166;-81
2023/07/17 02:32:52;;;;;;;9.52;2.83;;;;;14.70;94458.00;;;;7399309;19;20652;-80
2023/07/17 02:35:26;;;;;;;6.45;2.88;;;;;14.90;94459.00;;;;7400170;19;20632;-79
2023/07/17 02:37:54;;;;;;;7.05;2.83;;;;;15.00;94459.00;;;;7398784;19;20137;-80
2023/07/17 02:40:28;;;;;;;6.43;2.65;;;;;15.00;94465.00;;;;7398863;19;20148;-79
2023/07/17 02:43:05;;;;;;;5.72;3.13;;;;;15.00;94454.00;;;;7400596;19;20139;-79
2023/07/17 02:45:32;;;;;;;8.82;3.30;;;;;14.90;94464.00;;;;7397522;19;20153;-80
2023/07/17 02:48:06;;;;;;;6.50;2.80;;;;;14.80;94464.00;;;;7398669;19;20136;-79
2023/07/17 02:50:40;;;;;;;4.90;2.78;;;;;14.90;94467.00;;;;7398694;19;20135;-80
2023/07/17 02:53:08;;;;;;;3.75;2.65;;;;;14.90;94469.00;;;;7397083;19;20675;-79
2023/07/17 02:55:43;;;;;;;12.10;3.15;;;;;14.80;94464.00;;;;7397138;19;20680;-80
2023/07/17 02:58:13;;;;;;;8.82;3.22;;;;;14.70;94463.00;;;;7398195;19;20153;-80
2023/07/17 03:00:41;;;;;;;7.03;2.83;;;;;14.60;94480.00;;;;7397503;19;20251;-80
2023/07/17 03:03:17;;;;;;;6.55;2.92;;;;;14.50;94488.00;;;;7398260;19;20155;-79
2023/07/17 03:05:44;;;;;;;6.18;2.95;;;;;14.50;94479.00;;;;7393565;19;20222;-77
2023/07/17 03:08:25;;;;;;;3.92;2.90;;;;;14.50;94481.00;;;;7394541;19;20756;-79
2023/07/17 03:11:05;;;;;;;4.43;3.08;;;;;14.30;94492.00;;;;7396941;19;20144;-79
2023/07/17 03:13:33;;;;;;;6.88;2.88;;;;;14.30;94493.00;;;;7398551;19;20727;-78
2023/07/17 03:16:07;;;;;;;5.97;2.90;;;;;14.40;94462.00;;;;7396441;19;20643;-80
2023/07/17 03:18:41;;;;;;;8.30;3.42;;;;;14.40;94481.00;;;;7396587;19;20159;-79
2023/07/17 03:21:09;;;;;;;5.25;2.85;;;;;14.30;94491.00;;;;7398159;19;20148;-78
2023/07/17 03:23:43;;;;;;;7.60;3.35;;;;;14.20;94490.00;;;;7396388;19;20538;-77
2023/07/17 03:26:10;;;;;;;7.60;2.72;;;;;13.90;94487.00;;;;7395996;19;20136;-78
2023/07/17 03:28:45;;;;;;;10.40;3.80;;;;;13.90;94489.00;;;;7397212;19;20133;-77
2023/07/17 03:31:14;;;;;;;5.85;3.50;;;;;14.10;94488.00;;;;7395092;19;20158;-77
2023/07/17 03:33:43;;;;;;;8.88;3.50;;;;;14.30;94486.00;;;;7396178;19;20133;-76
2023/07/17 03:36:19;;;;;;;6.68;3.78;;;;;14.30;94501.00;;;;7396012;19;20139;-78
2023/07/17 03:38:47;;;;;;;9.65;4.55;;;;;14.10;94497.00;;;;7395419;19;20193;-77
2023/07/17 03:41:17;;;;;;;6.03;3.40;;;;;14.20;94498.00;;;;7394910;19;20152;-76
2023/07/17 03:43:56;;;;;;;8.43;3.40;;;;;14.40;94490.00;;;;7396313;19;20135;-76
2023/07/17 03:46:25;;;;;;;7.45;3.60;;;;;14.40;94492.00;;;;7395519;19;20129;-79
2023/07/17 03:48:59;;;;;;;7.70;3.80;;;;;14.30;94499.00;;;;7395620;19;20494;-75
2023/07/17 03:51:30;;;;;;;13.23;3.92;;;;;14.40;94499.00;;;;7396521;19;20476;-78
2023/07/17 03:54:03;;;;;;;7.28;3.72;;;;;14.30;94500.00;;;;7394161;19;20137;-77
2023/07/17 03:56:40;;;;;;;6.53;3.85;;;;;14.30;94500.00;;;;7396511;19;20133;-78
2023/07/17 03:59:14;;;;;;;6.38;3.45;;;;;14.20;94505.00;;;;7396242;19;20125;-77
2023/07/17 04:01:43;;;;;;;9.68;3.63;;;;;14.30;94502.00;;;;7395718;19;20153;-77
2023/07/17 04:04:19;;;;;;;7.20;3.65;;;;;14.40;94502.00;;;;7393645;19;20183;-76
2023/07/17 04:06:54;;;;;;;7.72;3.08;;;;;14.40;94500.00;;;;7393242;19;20224;-77
2023/07/17 04:09:28;;;;;;;5.72;3.28;;;;;14.50;94497.00;;;;7396024;19;20581;-76
2023/07/17 04:12:04;;;;;;;8.35;3.33;;;;;14.40;94493.00;;;;7395574;19;20151;-77
2023/07/17 04:14:40;;;;;;;6.35;3.97;;;;;14.60;94500.00;;;;7395797;19;20145;-77
2023/07/17 04:17:08;;;;;;;5.63;3.33;;;;;14.70;94492.00;;;;7395949;19;20611;-78
2023/07/17 04:19:42;;;;;;;8.05;3.30;;;;;14.60;94494.00;;;;7402695;19;20155;-76
2023/07/17 04:22:16;;;;;;;6.22;3.00;;;;;14.50;94498.00;;;;7403988;19;20216;-76
2023/07/17 04:24:46;;;;;;;5.63;3.10;;;;;14.40;94510.00;;;;7403169;19;20215;-77
2023/07/17 04:27:21;;;;;;;8.07;3.25;;;;;14.40;94511.00;;;;7399633;19;20157;-79
2023/07/17 04:29:50;;;;;;;7.10;3.42;;;;;14.30;94505.00;;;;7404248;19;20140;-78
2023/07/17 04:32:26;;;;;;;7.07;3.40;;;;;14.40;94516.00;;;;7402500;19;20577;-78
2023/07/17 04:34:59;;;;;;;6.80;3.78;;;;;14.40;94508.00;;;;7401156;19;20819;-78
2023/07/17 04:37:36;;;;;;;6.75;3.63;;;;;14.60;94515.00;;;;7403151;19;20150;-79
2023/07/17 04:40:12;;;;;;;7.47;3.53;;;;;14.70;94510.00;;;;7403872;19;20220;-80
2023/07/17 04:42:40;;;;;;;6.82;3.63;;;;;14.80;94510.00;;;;7401877;19;20129;-77
2023/07/17 04:45:16;;;;;;;11.95;3.50;;;;;15.00;94519.00;;;;7402515;19;20152;-79
2023/07/17 04:47:46;;;;;;;7.38;3.38;;;;;15.20;94511.00;;;;7401213;19;20605;-79
2023/07/17 04:50:27;;;;;;;5.82;3.63;;;;;15.20;94514.00;;;;7403422;19;20165;-79
2023/07/17 04:52:54;;;;;;;3.70;2.95;;;;;15.40;94518.00;;;;7403055;19;20144;-80
2023/07/17 04:55:28;;;;;;;8.63;3.75;;;;;15.60;94516.00;;;;7403788;19;20149;-78
2023/07/17 04:57:56;;;;;;;15.82;4.20;;;;;15.80;94519.00;;;;7402220;19;20140;-80
2023/07/17 05:00:33;;;;;;;8.65;3.28;;;;;15.90;94515.00;;;;7400621;19;20155;-78
2023/07/17 05:03:10;;;;;;;6.05;3.50;;;;;16.10;94519.00;;;;7398341;19;20149;-80
2023/07/17 05:05:50;;;;;;;7.35;3.60;;;;;16.20;94512.00;;;;7400284;19;20597;-81
2023/07/17 05:08:31;;;;;;;8.85;3.53;;;;;16.30;94524.00;;;;7395439;19;20202;-79
2023/07/17 05:11:00;;;;;;;7.63;3.38;;;;;16.40;94519.00;;;;7399154;19;20165;-81
2023/07/17 05:13:34;;;;;;;7.13;3.53;;;;;16.50;94520.00;;;;7396540;19;20422;-76
2023/07/17 05:16:08;;;;;;;6.07;3.25;;;;;16.60;94516.00;;;;7400078;19;20644;-79
2023/07/17 05:18:43;;;;;;;6.70;3.33;;;;;16.60;94522.00;;;;7403079;19;20151;-79
2023/07/17 05:21:11;;;;;;;10.43;3.47;;;;;16.80;94521.00;;;;7400460;19;20613;-78
2023/07/17 05:23:42;;;;;;;10.73;3.53;;;;;17.00;94529.00;;;;7400029;19;20175;-79
2023/07/17 05:26:16;;;;;;;8.80;3.35;;;;;17.20;94521.00;;;;7400700;19;20133;-78
2023/07/17 05:28:51;;;;;;;6.13;3.30;;;;;17.40;94521.00;;;;7396242;19;20163;-82
2023/07/17 05:31:25;;;;;;;10.13;3.78;;;;;17.50;94522.00;;;;7400409;19;20161;-79
2023/07/17 05:33:55;;;;;;;13.32;3.50;;;;;17.60;94524.00;;;;7399965;19;20129;-79
2023/07/17 05:36:23;;;;;;;8.50;3.45;;;;;17.80;94525.00;;;;7399629;19;20124;-80
2023/07/17 05:38:59;;;;;;;10.93;3.60;;;;;17.90;94523.00;;;;7400430;19;20158;-77
2023/07/17 05:41:33;;;;;;;4.15;3.00;;;;;18.00;94522.00;;;;7401233;19;20133;-79
2023/07/17 05:44:12;;;;;;;7.97;3.70;;;;;18.20;94522.00;;;;7399048;19;20144;-80
2023/07/17 05:46:47;;;;;;;6.43;3.35;;;;;18.30;94520.00;;;;7389325;19;20152;-79
2023/07/17 05:49:25;;;;;;;10.23;4.03;;;;;18.40;94528.00;;;;7389752;19;20152;-80
2023/07/17 05:52:02;;;;;;;7.63;3.60;;;;;18.50;94526.00;;;;7393956;19;20166;-79
2023/07/17 05:54:32;;;;;;;9.75;3.35;;;;;18.60;94529.00;;;;7391193;19;20259;-78
2023/07/17 05:57:08;;;;;;;9.23;3.13;;;;;18.70;94533.00;;;;7393438;19;20284;-79
2023/07/17 05:59:38;;;;;;;6.72;3.30;;;;;18.70;94532.00;;;;7392703;19;20143;-80
2023/07/17 06:02:15;;;;;;;8.75;3.75;;;;;18.80;94532.00;;;;7393517;19;20686;-79
2023/07/17 06:04:43;;;;;;;7.35;3.72;;;;;19.10;94536.00;;;;7391389;19;20156;-78
2023/07/17 06:07:13;;;;;;;6.65;3.90;;;;;19.10;94536.00;;;;7392809;19;20164;-76
2023/07/17 06:09:48;;;;;;;8.40;3.83;;;;;19.30;94544.00;;;;7390914;19;20633;-79
2023/07/17 06:12:22;;;;;;;9.95;3.97;;;;;19.50;94540.00;;;;7393156;19;20145;-77
2023/07/17 06:15:00;;;;;;;8.63;4.38;;;;;19.80;94542.00;;;;7392739;19;20619;-76
2023/07/17 06:17:28;;;;;;;9.45;4.70;;;;;20.10;94533.00;;;;7388236;19;20141;-78
2023/07/17 06:20:04;;;;;;;8.18;3.70;;;;;20.70;94533.00;;;;7392306;19;20182;-76
2023/07/17 06:22:40;;;;;;;11.20;4.05;;;;;21.20;94538.00;;;;7391884;19;20479;-78
2023/07/17 06:25:15;;;;;;;5.00;3.80;;;;;21.80;94545.00;;;;7391885;19;20642;-77
2023/07/17 06:27:43;;;;;;;6.70;3.90;;;;;22.20;94528.00;;;;7391764;19;20178;-77
2023/07/17 06:30:18;;;;;;;8.57;4.55;;;;;22.50;94533.00;;;;7392316;19;20144;-77
2023/07/17 06:32:46;;;;;;;6.75;4.00;;;;;22.20;94543.00;;;;7395997;19;20129;-77
2023/07/17 06:35:21;;;;;;;6.32;3.80;;;;;22.10;94537.00;;;;7392564;19;20136;-77
2023/07/17 06:37:49;;;;;;;9.50;4.55;;;;;22.00;94545.00;;;;7394346;19;20144;-76
2023/07/17 06:40:24;;;;;;;9.18;4.78;;;;;21.00;94549.00;;;;7392399;19;20132;-76
2023/07/17 06:43:00;;;;;;;7.32;4.05;;;;;21.40;94546.00;;;;7395027;19;20478;-78
2023/07/17 06:45:27;;;;;;;8.23;4.20;;;;;21.40;94543.00;;;;7392962;19;20480;-78
2023/07/17 06:48:17;;;;;;;10.25;4.60;;;;;21.50;94548.00;;;;7397358;19;20235;-79
2023/07/17 06:50:47;;;;;;;6.78;4.18;;;;;21.10;94542.00;;;;7393881;19;20141;-77
2023/07/17 06:53:21;;;;;;;7.72;4.40;;;;;21.30;94547.00;;;;7389119;19;20133;-75
2023/07/17 06:56:04;;;;;;;7.38;4.43;;;;;21.30;94547.00;;;;7395550;19;20615;-75
2023/07/17 06:58:38;;;;;;;8.10;4.53;;;;;20.90;94552.00;;;;7392833;19;20200;-77
2023/07/17 07:01:15;;;;;;;7.57;4.65;;;;;20.40;94544.00;;;;7392813;19;20172;-76
2023/07/17 07:03:53;;;;;;;8.07;4.28;;;;;20.80;94548.00;;;;7392144;19;20184;-76
2023/07/17 07:06:34;;;;;;;7.15;4.43;;;;;20.70;94548.00;;;;7390367;19;20636;-78
2023/07/17 07:09:08;;;;;;;7.30;4.47;;;;;21.00;94551.00;;;;7391525;19;20627;-77
2023/07/17 07:11:43;;;;;;;12.10;4.47;;;;;21.30;94551.00;;;;7389775;19;20167;-77
2023/07/17 07:14:17;;;;;;;12.00;4.82;;;;;21.10;94557.00;;;;7390374;19;20144;-76
2023/07/17 07:16:52;;;;;;;6.75;4.43;;;;;21.40;94548.00;;;;7391055;19;20159;-76
2023/07/17 07:19:28;;;;;;;8.57;4.18;;;;;21.40;94557.00;;;;7391918;19;20624;-75
2023/07/17 07:22:02;;;;;;;8.32;4.20;;;;;21.40;94562.00;;;;7390374;19;20254;-79
2023/07/17 07:24:30;;;;;;;7.32;4.35;;;;;21.50;94559.00;;;;7390553;19;20129;-74
2023/07/17 07:27:05;;;;;;;7.55;4.32;;;;;21.70;94574.00;;;;7392450;19;20555;-75
2023/07/17 07:29:39;;;;;;;5.50;4.18;;;;;21.10;94562.00;;;;7389449;19;20193;-77
2023/07/17 07:32:14;;;;;;;10.80;4.78;;;;;20.70;94576.00;;;;7391031;19;20154;-75
2023/07/17 07:34:48;;;;;;;8.48;4.82;;;;;20.60;94560.00;;;;7389521;19;20163;-78
2023/07/17 07:37:16;;;;;;;9.55;4.40;;;;;21.20;94562.00;;;;7391605;19;21413;-75
2023/07/17 07:39:44;;;;;;;9.60;4.50;;;;;21.80;94560.00;;;;7389983;19;20156;-76
2023/07/17 07:42:18;;;;;;;6.40;4.00;;;;;22.00;94582.00;;;;7388591;19;20131;-76
2023/07/17 07:44:46;;;;;;;6.63;4.57;;;;;21.40;94561.00;;;;7388993;19;20211;-75
2023/07/17 07:47:20;;;;;;;8.50;4.00;;;;;21.10;94577.00;;;;7389853;19;20207;-74
2023/07/17 07:49:54;;;;;;;7.68;4.10;;;;;20.90;94563.00;;;;7391680;19;20133;-77
2023/07/17 07:52:30;;;;;;;7.40;4.70;;;;;20.60;94603.00;;;;7388549;19;20537;-75
2023/07/17 07:55:05;;;;;;;10.20;4.53;;;;;20.20;94590.00;;;;7390442;19;20141;-76
2023/07/17 07:57:42;;;;;;;7.72;4.10;;;;;20.20;94564.00;;;;7390141;19;20156;-77
2023/07/17 08:00:19;;;;;;;7.93;4.65;;;;;20.60;94576.00;;;;7389880;19;20140;-77
2023/07/17 08:02:47;;;;;;;8.68;4.55;;;;;21.10;94570.00;;;;7389783;19;20197;-78
2023/07/17 08:05:15;;;;;;;9.85;5.03;;;;;21.40;94590.00;;;;7394038;19;20153;-77
2023/07/17 08:08:03;;;;;;;11.05;4.90;;;;;21.20;94600.00;;;;7386968;19;21019;-77
2023/07/17 08:10:31;;;;;;;7.70;4.30;;;;;20.80;94609.00;;;;7388966;19;20153;-78
2023/07/17 08:13:06;;;;;;;9.82;4.28;;;;;20.90;94571.00;;;;7392952;19;20629;-77
2023/07/17 08:15:34;;;;;;;7.80;4.90;;;;;21.80;94597.00;;;;7392337;19;20133;-78
2023/07/17 08:18:09;;;;;;;5.10;4.15;;;;;21.30;94605.00;;;;7389567;19;20132;-79
2023/07/17 08:20:44;;;;;;;7.25;4.65;;;;;21.10;94593.00;;;;7386988;19;21006;-78
2023/07/17 08:23:27;;;;;;;11.50;4.38;;;;;21.50;94598.00;;;;7390295;19;20471;-79
2023/07/17 08:25:56;;;;;;;10.95;4.53;;;;;22.20;94565.00;;;;7390175;19;20638;-79
2023/07/17 08:28:32;;;;;;;8.40;4.13;;;;;22.50;94587.00;;;;7388891;19;20159;-77
2023/07/17 08:31:08;;;;;;;7.78;4.57;;;;;22.10;94603.00;;;;7387478;19;20154;-74
2023/07/17 08:33:42;;;;;;;7.75;3.97;;;;;21.80;94593.00;;;;7387400;19;20793;-75
2023/07/17 08:36:12;;;;;;;10.00;4.43;;;;;21.60;94600.00;;;;7390540;19;20129;-79
2023/07/17 08:38:48;;;;;;;9.65;4.55;;;;;21.30;94603.00;;;;7387278;19;20593;-78
2023/07/17 08:41:24;;;;;;;8.63;4.82;;;;;21.20;94603.00;;;;7387496;19;20144;-80
2023/07/17 08:43:59;;;;;;;5.47;4.13;;;;;21.10;94607.00;;;;7391186;19;20128;-78
2023/07/17 08:46:28;;;;;;;8.77;4.22;;;;;21.50;94618.00;;;;7390056;19;20629;-78
2023/07/17 08:49:04;;;;;;;7.72;4.50;;;;;21.90;94608.00;;;;7389662;19;20237;-78
2023/07/17 08:51:39;;;;;;;8.05;5.30;;;;;22.10;94579.00;;;;7390096;19;20121;-78
2023/07/17 08:54:17;;;;;;;10.93;5.05;;;;;22.30;94618.00;;;;7390458;19;20125;-77
2023/07/17 08:56:49;;;;;;;8.55;4.13;;;;;22.30;94627.00;;;;7398080;19;20220;-80
2023/07/17 08:59:24;;;;;;;6.57;4.40;;;;;22.00;94619.00;;;;7394051;19;20275;-78
2023/07/17 09:01:53;;;;;;;8.43;4.82;;;;;21.90;94619.00;;;;7397705;19;20184;-79
2023/07/17 09:04:34;;;;;;;7.45;4.50;;;;;21.50;94617.00;;;;7396328;19;20137;-76
2023/07/17 09:07:03;;;;;;;7.88;4.78;;;;;21.40;94623.00;;;;7398744;19;20177;-78
2023/07/17 09:09:37;;;;;;;6.60;4.03;;;;;21.10;94618.00;;;;7400318;19;20196;-78
2023/07/17 09:12:10;;;;;;;12.88;4.88;;;;;21.50;94628.00;;;;7402007;19;20137;-80
2023/07/17 09:14:44;;;;;;;5.95;4.22;;;;;21.10;94617.00;;;;7401088;19;20519;-78
2023/07/17 09:17:12;;;;;;;8.27;4.20;;;;;21.40;94586.00;;;;7402793;19;20201;-79
2023/07/17 09:19:46;;;;;;;7.32;4.70;;;;;21.80;94615.00;;;;7401343;19;20132;-80
2023/07/17 09:22:18;;;;;;;5.72;4.25;;;;;21.80;94579.00;;;;7402549;19;20145;-77
2023/07/17 09:24:52;;;;;;;7.75;4.90;;;;;22.20;94586.00;;;;7402090;19;20205;-81
2023/07/17 09:27:21;;;;;;;6.28;4.50;;;;;23.00;94615.00;;;;7400959;19;20614;-80
2023/07/17 09:30:08;;;;;;;7.05;4.57;;;;;22.50;94609.00;;;;7395981;19;20133;-78
2023/07/17 09:32:38;;;;;;;8.30;4.90;;;;;22.20;94615.00;;;;7402447;19;20137;-83
2023/07/17 09:35:19;;;;;;;8.40;4.53;;;;;22.40;94611.00;;;;7400647;19;20133;-80
2023/07/17 09:37:47;;;;;;;6.00;4.55;;;;;22.60;94594.00;;;;7398616;19;20125;-80
2023/07/17 09:40:28;;;;;;;8.73;5.05;;;;;23.30;94584.00;;;;7404145;19;20137;-77
2023/07/17 09:42:56;;;;;;;6.13;4.45;;;;;23.50;94584.00;;;;7403888;19;20133;-81
2023/07/17 09:45:33;;;;;;;10.55;4.35;;;;;23.90;94588.00;;;;7399515;19;20173;-76
2023/07/17 09:48:04;;;;;;;7.20;4.25;;;;;24.40;94609.00;;;;7401241;19;20621;-81
2023/07/17 09:50:38;;;;;;;7.53;4.13;;;;;23.10;94616.00;;;;7397638;19;20140;-77
2023/07/17 09:53:07;;;;;;;6.53;4.22;;;;;23.70;94580.00;;;;7397834;19;20164;-79
2023/07/17 09:55:43;;;;;;;10.10;4.78;;;;;24.50;94577.00;;;;7398667;19;20513;-79
2023/07/17 09:58:18;;;;;;;7.72;4.60;;;;;25.00;94569.00;;;;7402857;19;20152;-76
2023/07/17 10:00:50;;;;;;;6.38;4.65;;;;;25.20;94581.00;;;;7401276;19;20143;-77
2023/07/17 10:03:30;;;;;;;7.70;4.57;;;;;23.80;94593.00;;;;7395550;19;20556;-78
2023/07/17 10:06:04;;;;;;;8.13;4.47;;;;;23.50;94613.00;;;;7395817;19;20140;-79
2023/07/17 10:08:42;;;;;;;6.53;4.20;;;;;22.80;94593.00;;;;7393782;19;20153;-77
2023/07/17 10:11:18;;;;;;;7.68;4.57;;;;;23.10;94581.00;;;;7396812;19;20156;-80
2023/07/17 10:13:48;;;;;;;9.10;4.40;;;;;23.80;94581.00;;;;7398920;19;20155;-77
2023/07/17 10:16:24;;;;;;;7.07;3.97;;;;;24.60;94586.00;;;;7396889;19;20141;-77
2023/07/17 10:18:59;;;;;;;8.73;4.32;;;;;23.90;94575.00;;;;7399924;19;20600;-80
2023/07/17 10:21:34;;;;;;;6.05;4.10;;;;;24.10;94575.00;;;;7399921;19;20608;-77
2023/07/17 10:24:02;;;;;;;7.22;4.47;;;;;25.20;94567.00;;;;7399627;19;20159;-77
2023/07/17 10:26:39;;;;;;;6.18;4.18;;;;;24.10;94613.00;;;;7397984;19;20152;-79
2023/07/17 10:29:07;;;;;;;5.85;3.97;;;;;23.70;94556.00;;;;7398521;19;20475;-79
2023/07/17 10:31:51;;;;;;;6.30;4.65;;;;;23.80;94565.00;;;;7397874;19;20644;-78
2023/07/17 10:34:55;;;;;;;6.05;3.90;;;;;25.00;94562.00;;;;7398386;19;20156;-79
2023/07/17 10:37:35;;;;;;;8.32;3.90;;;;;26.00;94558.00;;;;7397480;19;20512;-81
2023/07/17 10:40:28;;;;;;;7.93;4.38;;;;;25.40;94561.00;;;;7398769;19;20156;-77
2023/07/17 10:43:12;;;;;;;4.60;3.95;;;;;24.90;94594.00;;;;7400698;19;20145;-78
2023/07/17 10:45:40;;;;;;;9.45;4.35;;;;;24.70;94597.00;;;;7397700;19;20148;-78
2023/07/17 10:48:15;;;;;;;7.38;4.30;;;;;24.30;94554.00;;;;7396595;19;20569;-76
2023/07/17 10:50:51;;;;;;;6.97;4.22;;;;;24.60;94545.00;;;;7398055;19;20133;-78
2023/07/17 10:53:27;;;;;;;5.80;3.92;;;;;25.00;94550.00;;;;7398239;19;20603;-80
2023/07/17 10:55:55;;;;;;;7.75;3.67;;;;;25.30;94547.00;;;;7397616;19;20140;-78
2023/07/17 10:58:29;;;;;;;7.90;3.97;;;;;24.90;94558.00;;;;7399190;19;20340;-80
2023/07/17 11:01:03;;;;;;;7.35;4.30;;;;;25.40;94558.00;;;;7395406;19;20137;-78
2023/07/17 11:03:47;;;;;;;8.18;4.50;;;;;25.80;94558.00;;;;7396809;19;20145;-75
2023/07/17 11:06:25;;;;;;;8.65;3.92;;;;;25.20;94551.00;;;;7396791;19;20596;-79
2023/07/17 11:09:07;;;;;;;9.27;4.50;;;;;26.60;94556.00;;;;7394500;19;20164;-78
2023/07/17 11:11:40;;;;;;;7.10;4.68;;;;;25.40;94550.00;;;;7396290;19;20176;-78
2023/07/17 11:14:17;;;;;;;6.18;4.15;;;;;25.40;94561.00;;;;7399003;19;20132;-77
2023/07/17 11:16:53;;;;;;;14.55;4.50;;;;;26.50;94546.00;;;;7395950;19;20144;-77
2023/07/17 11:19:28;;;;;;;6.95;4.00;;;;;26.60;94552.00;;;;7395635;19;20148;-78
2023/07/17 11:21:57;;;;;;;6.53;3.92;;;;;27.10;94545.00;;;;7399184;19;20208;-79
2023/07/17 11:24:32;;;;;;;6.05;3.90;;;;;26.60;94541.00;;;;7396623;19;20160;-76
2023/07/17 11:27:07;;;;;;;8.52;3.80;;;;;25.90;94543.00;;;;7393827;19;20185;-81
2023/07/17 11:29:41;;;;;;;5.13;3.70;;;;;27.00;94555.00;;;;7396893;19;20193;-75
2023/07/17 11:32:11;;;;;;;7.38;4.20;;;;;26.30;94550.00;;;;7396499;19;20140;-77
2023/07/17 11:34:54;;;;;;;8.45;4.30;;;;;26.70;94548.00;;;;7396608;19;20485;-78
2023/07/17 11:37:38;;;;;;;8.13;4.05;;;;;27.60;94556.00;;;;7397218;19;20132;-77
2023/07/17 11:40:12;;;;;;;5.45;3.78;;;;;25.20;94554.00;;;;7399199;19;20136;-82
2023/07/17 11:42:55;;;;;;;7.15;4.15;;;;;26.20;94549.00;;;;7397132;19;20132;-79
2023/07/17 11:45:30;;;;;;;6.35;3.92;;;;;26.90;94555.00;;;;7394796;19;20230;-78
2023/07/17 11:47:58;;;;;;;5.80;3.83;;;;;26.70;94549.00;;;;7395800;19;20136;-78
2023/07/17 11:50:32;;;;;;;5.80;3.67;;;;;26.30;94548.00;;;;7393769;19;20553;-79
2023/07/17 11:53:04;;;;;;;5.65;4.15;;;;;27.30;94540.00;;;;7398607;19;20129;-80
2023/07/17 11:55:40;;;;;;;5.35;3.92;;;;;26.90;94552.00;;;;7395908;19;20168;-77
2023/07/17 11:58:18;;;;;;;6.88;4.28;;;;;27.80;94542.00;;;;7398357;19;20752;-82
2023/07/17 12:00:54;;;;;;;6.03;3.60;;;;;28.30;94539.00;;;;7397520;19;20136;-79
2023/07/17 12:03:24;;;;;;;7.32;4.00;;;;;28.80;94547.00;;;;7398005;19;20169;-85
2023/07/17 12:05:58;;;;;;;8.55;4.35;;;;;28.60;94535.00;;;;7392769;19;20477;-82
2023/07/17 12:08:32;;;;;;;7.43;3.88;;;;;27.10;94585.00;;;;7399188;19;20136;-81
2023/07/17 12:11:07;;;;;;;7.88;3.63;;;;;25.70;94547.00;;;;7397960;19;20174;-78
2023/07/17 12:13:37;;;;;;;5.60;4.13;;;;;25.90;94558.00;;;;7398817;19;20133;-80
2023/07/17 12:16:11;;;;;;;5.70;4.07;;;;;26.20;94537.00;;;;7398472;19;20128;-80
2023/07/17 12:18:45;;;;;;;7.80;3.67;;;;;25.20;94542.00;;;;7398629;19;20599;-80
2023/07/17 12:21:20;;;;;;;4.93;3.45;;;;;25.80;94550.00;;;;7399366;19;20220;-81
2023/07/17 12:23:56;;;;;;;7.97;3.70;;;;;25.50;94537.00;;;;7396809;19;20132;-82
2023/07/17 12:26:31;;;;;;;6.30;3.78;;;;;25.60;94530.00;;;;7399129;19;20169;-82
2023/07/17 12:28:59;;;;;;;6.35;3.50;;;;;27.20;94529.00;;;;7401339;19;20145;-79
2023/07/17 12:31:34;;;;;;;5.63;3.40;;;;;27.60;94531.00;;;;7401870;19;20141;-82
2023/07/17 12:34:02;;;;;;;6.13;3.97;;;;;28.30;94533.00;;;;7402331;19;20149;-80
2023/07/17 12:36:36;;;;;;;5.40;3.60;;;;;27.50;94528.00;;;;7400530;19;20677;-82
2023/07/17 12:39:15;;;;;;;5.25;3.53;;;;;27.20;94556.00;;;;7404480;19;20140;-80
2023/07/17 12:41:43;;;;;;;7.25;4.00;;;;;26.80;94553.00;;;;7410583;19;20245;-76
2023/07/17 12:44:17;;;;;;;5.47;3.78;;;;;26.40;94551.00;;;;7406264;19;20151;-77
2023/07/17 12:46:47;;;;;;;7.40;4.20;;;;;26.30;94517.00;;;;7403115;19;20141;-78